sensor_id;sensor_type;location;lat;lon;timestamp;pressure;altitude;pressure_sealevel;temperature;humidity
43814;BME280;29669;55.706;37.656;2024-03-25T00:02:06;98225.06;;;5.55;nan
43814;BME280;29669;55.706;37.656;2024-03-25T00:04:33;98225.09;;;5.47;nan
43814;BME280;29669;55.706;37.656;2024-03-25T00:07:00;98236.22;;;5.40;nan
43814;BME280;29669;55.706;37.656;2024-03-25T00:09:28;98247.16;;;5.34;nan
43814;BME280;29669;55.706;37.656;2024-03-25T00:11:55;98251.84;;;5.30;nan
43814;BME280;29669;55.706;37.656;2024-03-25T00:14:22;98268.09;;;5.31;nan
43814;BME280;29669;55.706;37.656;2024-03-25T00:16:49;98264.88;;;5.29;nan
43814;BME280;29669;55.706;37.656;2024-03-25T00:19:16;98290.25;;;5.32;nan
43814;BME280;29669;55.706;37.656;2024-03-25T00:21:43;98285.28;;;5.30;nan
43814;BME280;29669;55.706;37.656;2024-03-25T00:24:10;98296.56;;;5.29;nan
43814;BME280;29669;55.706;37.656;2024-03-25T00:26:38;98293.66;;;5.24;nan
43814;BME280;29669;55.706;37.656;2024-03-25T00:29:05;98285.16;;;5.24;nan
43814;BME280;29669;55.706;37.656;2024-03-25T00:31:32;98286.94;;;5.23;nan
43814;BME280;29669;55.706;37.656;2024-03-25T00:33:58;98285.16;;;5.24;nan
43814;BME280;29669;55.706;37.656;2024-03-25T00:36:25;98278.59;;;5.13;nan
43814;BME280;29669;55.706;37.656;2024-03-25T00:38:52;98293.53;;;5.10;nan
43814;BME280;29669;55.706;37.656;2024-03-25T00:41:18;98284.38;;;5.07;nan
43814;BME280;29669;55.706;37.656;2024-03-25T00:43:45;98298.84;;;5.08;nan
43814;BME280;29669;55.706;37.656;2024-03-25T00:46:12;98295.97;;;5.03;nan
43814;BME280;29669;55.706;37.656;2024-03-25T00:48:39;98287.00;;;4.99;nan
43814;BME280;29669;55.706;37.656;2024-03-25T00:51:05;98294.53;;;4.93;nan
43814;BME280;29669;55.706;37.656;2024-03-25T00:53:32;98327.31;;;4.91;nan
43814;BME280;29669;55.706;37.656;2024-03-25T00:55:59;98310.59;;;4.87;nan
43814;BME280;29669;55.706;37.656;2024-03-25T00:58:25;98319.47;;;4.84;nan
43814;BME280;29669;55.706;37.656;2024-03-25T01:00:52;98325.56;;;4.83;nan
43814;BME280;29669;55.706;37.656;2024-03-25T01:03:19;98335.69;;;4.68;nan
43814;BME280;29669;55.706;37.656;2024-03-25T01:05:46;98345.13;;;4.60;nan
43814;BME280;29669;55.706;37.656;2024-03-25T01:08:13;98328.47;;;4.56;nan
43814;BME280;29669;55.706;37.656;2024-03-25T01:10:41;98345.81;;;4.54;nan
43814;BME280;29669;55.706;37.656;2024-03-25T01:13:07;98340.81;;;4.52;nan
43814;BME280;29669;55.706;37.656;2024-03-25T01:15:37;98338.41;;;4.51;nan
43814;BME280;29669;55.706;37.656;2024-03-25T01:18:04;98342.88;;;4.49;nan
43814;BME280;29669;55.706;37.656;2024-03-25T01:20:30;98339.03;;;4.45;nan
43814;BME280;29669;55.706;37.656;2024-03-25T01:22:57;98360.22;;;4.47;nan
43814;BME280;29669;55.706;37.656;2024-03-25T01:25:24;98367.63;;;4.42;nan
43814;BME280;29669;55.706;37.656;2024-03-25T01:27:51;98369.38;;;4.41;nan
43814;BME280;29669;55.706;37.656;2024-03-25T01:30:18;98374.66;;;4.40;nan
43814;BME280;29669;55.706;37.656;2024-03-25T01:32:45;98370.16;;;4.34;nan
43814;BME280;29669;55.706;37.656;2024-03-25T01:35:14;98363.56;;;4.23;nan
43814;BME280;29669;55.706;37.656;2024-03-25T01:37:42;98370.94;;;4.18;nan
43814;BME280;29669;55.706;37.656;2024-03-25T01:40:32;98347.47;;;4.13;nan
43814;BME280;29669;55.706;37.656;2024-03-25T01:43:00;98385.06;;;4.22;nan
43814;BME280;29669;55.706;37.656;2024-03-25T01:45:33;98363.09;;;4.20;nan
43814;BME280;29669;55.706;37.656;2024-03-25T01:48:08;98387.13;;;4.19;nan
43814;BME280;29669;55.706;37.656;2024-03-25T01:50:37;98390.00;;;4.08;nan
43814;BME280;29669;55.706;37.656;2024-03-25T01:53:05;98381.16;;;4.02;nan
43814;BME280;29669;55.706;37.656;2024-03-25T01:55:34;98398.63;;;3.99;nan
43814;BME280;29669;55.706;37.656;2024-03-25T01:58:02;98381.47;;;3.99;nan
43814;BME280;29669;55.706;37.656;2024-03-25T02:00:43;98402.00;;;3.99;nan
43814;BME280;29669;55.706;37.656;2024-03-25T02:03:10;98408.25;;;3.97;nan
43814;BME280;29669;55.706;37.656;2024-03-25T02:05:43;98389.44;;;3.88;nan
43814;BME280;29669;55.706;37.656;2024-03-25T02:08:10;98393.09;;;3.77;nan
43814;BME280;29669;55.706;37.656;2024-03-25T02:10:38;98399.63;;;3.72;nan
43814;BME280;29669;55.706;37.656;2024-03-25T02:13:05;98410.97;;;3.61;nan
43814;BME280;29669;55.706;37.656;2024-03-25T02:15:36;98409.13;;;3.46;nan
43814;BME280;29669;55.706;37.656;2024-03-25T02:18:03;98421.06;;;3.37;nan
43814;BME280;29669;55.706;37.656;2024-03-25T02:20:33;98414.03;;;3.39;nan
43814;BME280;29669;55.706;37.656;2024-03-25T02:23:02;98412.84;;;3.51;nan
43814;BME280;29669;55.706;37.656;2024-03-25T02:25:32;98415.13;;;3.62;nan
43814;BME280;29669;55.706;37.656;2024-03-25T02:28:00;98423.66;;;3.71;nan
43814;BME280;29669;55.706;37.656;2024-03-25T02:30:30;98437.53;;;3.78;nan
43814;BME280;29669;55.706;37.656;2024-03-25T02:33:14;98429.50;;;3.81;nan
43814;BME280;29669;55.706;37.656;2024-03-25T02:35:43;98435.72;;;3.78;nan
43814;BME280;29669;55.706;37.656;2024-03-25T02:38:12;98438.31;;;3.78;nan
43814;BME280;29669;55.706;37.656;2024-03-25T02:40:42;98453.41;;;3.81;nan
43814;BME280;29669;55.706;37.656;2024-03-25T02:43:10;98452.44;;;3.82;nan
43814;BME280;29669;55.706;37.656;2024-03-25T02:45:37;98446.38;;;3.83;nan
43814;BME280;29669;55.706;37.656;2024-03-25T02:48:06;98475.53;;;3.82;nan
43814;BME280;29669;55.706;37.656;2024-03-25T02:50:42;98467.66;;;3.76;nan
43814;BME280;29669;55.706;37.656;2024-03-25T02:53:08;98475.19;;;3.77;nan
43814;BME280;29669;55.706;37.656;2024-03-25T02:55:35;98481.66;;;3.81;nan
43814;BME280;29669;55.706;37.656;2024-03-25T02:58:05;98482.63;;;3.89;nan
43814;BME280;29669;55.706;37.656;2024-03-25T03:00:32;98481.81;;;3.88;nan
43814;BME280;29669;55.706;37.656;2024-03-25T03:02:59;98483.94;;;3.93;nan
43814;BME280;29669;55.706;37.656;2024-03-25T03:05:29;98492.16;;;3.96;nan
43814;BME280;29669;55.706;37.656;2024-03-25T03:07:56;98492.09;;;3.88;nan
43814;BME280;29669;55.706;37.656;2024-03-25T03:10:22;98498.50;;;3.84;nan
43814;BME280;29669;55.706;37.656;2024-03-25T03:12:49;98497.03;;;3.81;nan
43814;BME280;29669;55.706;37.656;2024-03-25T03:15:16;98501.38;;;3.81;nan
43814;BME280;29669;55.706;37.656;2024-03-25T03:17:43;98505.69;;;3.80;nan
43814;BME280;29669;55.706;37.656;2024-03-25T03:20:10;98512.59;;;3.80;nan
43814;BME280;29669;55.706;37.656;2024-03-25T03:22:37;98508.25;;;3.80;nan
43814;BME280;29669;55.706;37.656;2024-03-25T03:25:05;98524.31;;;3.82;nan
43814;BME280;29669;55.706;37.656;2024-03-25T03:27:32;98511.94;;;3.78;nan
43814;BME280;29669;55.706;37.656;2024-03-25T03:29:58;98513.34;;;3.72;nan
43814;BME280;29669;55.706;37.656;2024-03-25T03:32:25;98519.25;;;3.73;nan
43814;BME280;29669;55.706;37.656;2024-03-25T03:34:52;98517.22;;;3.76;nan
43814;BME280;29669;55.706;37.656;2024-03-25T03:37:21;98536.47;;;3.80;nan
43814;BME280;29669;55.706;37.656;2024-03-25T03:39:48;98542.72;;;3.78;nan
43814;BME280;29669;55.706;37.656;2024-03-25T03:42:15;98539.69;;;3.82;nan
43814;BME280;29669;55.706;37.656;2024-03-25T03:44:42;98549.03;;;3.83;nan
43814;BME280;29669;55.706;37.656;2024-03-25T03:47:09;98542.41;;;3.81;nan
43814;BME280;29669;55.706;37.656;2024-03-25T03:49:35;98551.28;;;3.87;nan
43814;BME280;29669;55.706;37.656;2024-03-25T03:52:02;98546.81;;;3.89;nan
43814;BME280;29669;55.706;37.656;2024-03-25T03:54:29;98546.38;;;3.93;nan
43814;BME280;29669;55.706;37.656;2024-03-25T03:56:59;98557.13;;;3.97;nan
43814;BME280;29669;55.706;37.656;2024-03-25T03:59:28;98556.31;;;3.96;nan
43814;BME280;29669;55.706;37.656;2024-03-25T04:02:15;98555.88;;;4.01;nan
43814;BME280;29669;55.706;37.656;2024-03-25T04:04:45;98565.84;;;4.04;nan
43814;BME280;29669;55.706;37.656;2024-03-25T04:07:12;98570.81;;;4.05;nan
43814;BME280;29669;55.706;37.656;2024-03-25T04:09:38;98579.31;;;4.06;nan
43814;BME280;29669;55.706;37.656;2024-03-25T04:12:05;98576.09;;;4.04;nan
43814;BME280;29669;55.706;37.656;2024-03-25T04:14:32;98590.25;;;4.08;nan
43814;BME280;29669;55.706;37.656;2024-03-25T04:16:59;98591.72;;;4.10;nan
43814;BME280;29669;55.706;37.656;2024-03-25T04:19:26;98590.31;;;4.16;nan
43814;BME280;29669;55.706;37.656;2024-03-25T04:21:53;98573.00;;;4.18;nan
43814;BME280;29669;55.706;37.656;2024-03-25T04:24:20;98594.47;;;4.17;nan
43814;BME280;29669;55.706;37.656;2024-03-25T04:26:47;98601.53;;;4.15;nan
43814;BME280;29669;55.706;37.656;2024-03-25T04:29:15;98597.81;;;4.09;nan
43814;BME280;29669;55.706;37.656;2024-03-25T04:31:42;98599.13;;;4.13;nan
43814;BME280;29669;55.706;37.656;2024-03-25T04:34:09;98602.56;;;4.22;nan
43814;BME280;29669;55.706;37.656;2024-03-25T04:36:36;98612.72;;;4.31;nan
43814;BME280;29669;55.706;37.656;2024-03-25T04:39:05;98616.72;;;4.26;nan
43814;BME280;29669;55.706;37.656;2024-03-25T04:41:38;98629.56;;;4.26;nan
43814;BME280;29669;55.706;37.656;2024-03-25T04:44:05;98627.78;;;4.26;nan
43814;BME280;29669;55.706;37.656;2024-03-25T04:46:32;98636.59;;;4.24;nan
43814;BME280;29669;55.706;37.656;2024-03-25T04:48:58;98650.69;;;4.20;nan
43814;BME280;29669;55.706;37.656;2024-03-25T04:51:25;98642.84;;;4.21;nan
43814;BME280;29669;55.706;37.656;2024-03-25T04:53:53;98645.72;;;4.18;nan
43814;BME280;29669;55.706;37.656;2024-03-25T04:56:20;98648.16;;;4.28;nan
43814;BME280;29669;55.706;37.656;2024-03-25T04:58:46;98652.34;;;4.29;nan
43814;BME280;29669;55.706;37.656;2024-03-25T05:01:13;98651.38;;;4.30;nan
43814;BME280;29669;55.706;37.656;2024-03-25T05:03:40;98670.25;;;4.38;nan
43814;BME280;29669;55.706;37.656;2024-03-25T05:06:06;98658.06;;;4.40;nan
43814;BME280;29669;55.706;37.656;2024-03-25T05:08:36;98666.25;;;4.44;nan
43814;BME280;29669;55.706;37.656;2024-03-25T05:11:03;98670.59;;;4.43;nan
43814;BME280;29669;55.706;37.656;2024-03-25T05:13:30;98671.72;;;4.41;nan
43814;BME280;29669;55.706;37.656;2024-03-25T05:15:59;98681.19;;;4.40;nan
43814;BME280;29669;55.706;37.656;2024-03-25T05:18:27;98681.69;;;4.44;nan
43814;BME280;29669;55.706;37.656;2024-03-25T05:20:54;98684.16;;;4.53;nan
43814;BME280;29669;55.706;37.656;2024-03-25T05:23:20;98688.28;;;4.72;nan
43814;BME280;29669;55.706;37.656;2024-03-25T05:25:47;98692.22;;;4.84;nan
43814;BME280;29669;55.706;37.656;2024-03-25T05:28:13;98700.41;;;4.88;nan
43814;BME280;29669;55.706;37.656;2024-03-25T05:30:42;98703.31;;;4.93;nan
43814;BME280;29669;55.706;37.656;2024-03-25T05:33:18;98712.84;;;5.00;nan
43814;BME280;29669;55.706;37.656;2024-03-25T05:35:45;98715.81;;;5.13;nan
43814;BME280;29669;55.706;37.656;2024-03-25T05:38:11;98717.53;;;5.38;nan
43814;BME280;29669;55.706;37.656;2024-03-25T05:40:38;98716.78;;;5.54;nan
43814;BME280;29669;55.706;37.656;2024-03-25T05:43:05;98715.63;;;5.56;nan
43814;BME280;29669;55.706;37.656;2024-03-25T05:45:31;98713.72;;;5.58;nan
43814;BME280;29669;55.706;37.656;2024-03-25T05:47:58;98722.09;;;5.60;nan
43814;BME280;29669;55.706;37.656;2024-03-25T05:50:24;98723.56;;;5.63;nan
43814;BME280;29669;55.706;37.656;2024-03-25T05:52:51;98728.88;;;5.69;nan
43814;BME280;29669;55.706;37.656;2024-03-25T05:55:17;98732.25;;;5.70;nan
43814;BME280;29669;55.706;37.656;2024-03-25T05:57:43;98744.16;;;5.63;nan
43814;BME280;29669;55.706;37.656;2024-03-25T06:00:10;98733.66;;;5.56;nan
43814;BME280;29669;55.706;37.656;2024-03-25T06:02:40;98741.72;;;5.61;nan
43814;BME280;29669;55.706;37.656;2024-03-25T06:05:08;98743.19;;;5.72;nan
43814;BME280;29669;55.706;37.656;2024-03-25T06:07:35;98750.31;;;5.78;nan
43814;BME280;29669;55.706;37.656;2024-03-25T06:10:02;98752.59;;;5.89;nan
43814;BME280;29669;55.706;37.656;2024-03-25T06:12:30;98758.78;;;6.12;nan
43814;BME280;29669;55.706;37.656;2024-03-25T06:14:56;98762.50;;;6.34;nan
43814;BME280;29669;55.706;37.656;2024-03-25T06:17:23;98763.78;;;6.38;nan
43814;BME280;29669;55.706;37.656;2024-03-25T06:19:49;98775.22;;;6.35;nan
43814;BME280;29669;55.706;37.656;2024-03-25T06:22:18;98777.97;;;6.34;nan
43814;BME280;29669;55.706;37.656;2024-03-25T06:24:44;98786.50;;;6.42;nan
43814;BME280;29669;55.706;37.656;2024-03-25T06:27:11;98782.47;;;6.48;nan
43814;BME280;29669;55.706;37.656;2024-03-25T06:29:37;98788.59;;;6.63;nan
43814;BME280;29669;55.706;37.656;2024-03-25T06:32:04;98792.47;;;6.75;nan
43814;BME280;29669;55.706;37.656;2024-03-25T06:34:50;98810.03;;;6.63;nan
43814;BME280;29669;55.706;37.656;2024-03-25T06:37:16;98804.22;;;6.61;nan
43814;BME280;29669;55.706;37.656;2024-03-25T06:39:43;98811.16;;;6.69;nan
43814;BME280;29669;55.706;37.656;2024-03-25T06:42:10;98814.19;;;6.97;nan
43814;BME280;29669;55.706;37.656;2024-03-25T06:44:39;98806.78;;;6.78;nan
43814;BME280;29669;55.706;37.656;2024-03-25T06:47:12;98814.84;;;6.42;nan
43814;BME280;29669;55.706;37.656;2024-03-25T06:49:39;98818.84;;;6.13;nan
43814;BME280;29669;55.706;37.656;2024-03-25T06:52:06;98818.22;;;6.19;nan
43814;BME280;29669;55.706;37.656;2024-03-25T06:54:32;98827.19;;;6.07;nan
43814;BME280;29669;55.706;37.656;2024-03-25T06:56:59;98824.59;;;5.99;nan
43814;BME280;29669;55.706;37.656;2024-03-25T06:59:26;98823.28;;;5.95;nan
43814;BME280;29669;55.706;37.656;2024-03-25T07:01:53;98835.38;;;6.02;nan
43814;BME280;29669;55.706;37.656;2024-03-25T07:04:19;98834.94;;;6.15;nan
43814;BME280;29669;55.706;37.656;2024-03-25T07:06:46;98845.25;;;6.23;nan
43814;BME280;29669;55.706;37.656;2024-03-25T07:09:13;98843.69;;;6.54;nan
43814;BME280;29669;55.706;37.656;2024-03-25T07:11:40;98854.69;;;6.64;nan
43814;BME280;29669;55.706;37.656;2024-03-25T07:14:09;98857.25;;;6.72;nan
43814;BME280;29669;55.706;37.656;2024-03-25T07:16:36;98861.28;;;6.83;nan
43814;BME280;29669;55.706;37.656;2024-03-25T07:19:02;98861.13;;;6.92;nan
43814;BME280;29669;55.706;37.656;2024-03-25T07:21:29;98866.09;;;7.18;nan
43814;BME280;29669;55.706;37.656;2024-03-25T07:23:55;98866.41;;;7.31;nan
43814;BME280;29669;55.706;37.656;2024-03-25T07:26:22;98861.06;;;7.48;nan
43814;BME280;29669;55.706;37.656;2024-03-25T07:29:08;98872.59;;;7.77;nan
43814;BME280;29669;55.706;37.656;2024-03-25T07:31:34;98874.25;;;7.61;nan
43814;BME280;29669;55.706;37.656;2024-03-25T07:34:01;98874.91;;;7.55;nan
43814;BME280;29669;55.706;37.656;2024-03-25T07:36:28;98883.94;;;7.59;nan
43814;BME280;29669;55.706;37.656;2024-03-25T07:39:00;98893.91;;;7.71;nan
43814;BME280;29669;55.706;37.656;2024-03-25T07:41:26;98889.84;;;7.84;nan
43814;BME280;29669;55.706;37.656;2024-03-25T07:43:53;98879.84;;;7.81;nan
43814;BME280;29669;55.706;37.656;2024-03-25T07:46:20;98897.78;;;7.67;nan
43814;BME280;29669;55.706;37.656;2024-03-25T07:48:46;98897.16;;;7.64;nan
43814;BME280;29669;55.706;37.656;2024-03-25T07:51:13;98901.91;;;7.92;nan
43814;BME280;29669;55.706;37.656;2024-03-25T07:53:39;98906.31;;;8.30;nan
43814;BME280;29669;55.706;37.656;2024-03-25T07:56:06;98908.19;;;8.44;nan
43814;BME280;29669;55.706;37.656;2024-03-25T07:58:35;98917.06;;;8.49;nan
43814;BME280;29669;55.706;37.656;2024-03-25T08:01:01;98909.41;;;8.56;nan
43814;BME280;29669;55.706;37.656;2024-03-25T08:03:28;98920.94;;;8.45;nan
43814;BME280;29669;55.706;37.656;2024-03-25T08:05:55;98911.53;;;8.52;nan
43814;BME280;29669;55.706;37.656;2024-03-25T08:08:21;98919.88;;;8.63;nan
43814;BME280;29669;55.706;37.656;2024-03-25T08:10:48;98922.09;;;8.43;nan
43814;BME280;29669;55.706;37.656;2024-03-25T08:13:15;98918.06;;;8.40;nan
43814;BME280;29669;55.706;37.656;2024-03-25T08:15:41;98918.56;;;8.67;nan
43814;BME280;29669;55.706;37.656;2024-03-25T08:18:08;98932.94;;;8.69;nan
43814;BME280;29669;55.706;37.656;2024-03-25T08:20:35;98918.00;;;8.79;nan
43814;BME280;29669;55.706;37.656;2024-03-25T08:23:01;98910.59;;;8.99;nan
43814;BME280;29669;55.706;37.656;2024-03-25T08:25:28;98916.75;;;9.12;nan
43814;BME280;29669;55.706;37.656;2024-03-25T08:27:54;98914.47;;;9.17;nan
43814;BME280;29669;55.706;37.656;2024-03-25T08:30:21;98917.94;;;9.47;nan
43814;BME280;29669;55.706;37.656;2024-03-25T08:32:47;98925.56;;;9.78;nan
43814;BME280;29669;55.706;37.656;2024-03-25T08:35:14;98927.16;;;9.79;nan
43814;BME280;29669;55.706;37.656;2024-03-25T08:37:41;98933.03;;;9.43;nan
43814;BME280;29669;55.706;37.656;2024-03-25T08:40:08;98927.28;;;9.33;nan
43814;BME280;29669;55.706;37.656;2024-03-25T08:42:35;98923.84;;;9.70;nan
43814;BME280;29669;55.706;37.656;2024-03-25T08:45:02;98924.50;;;9.87;nan
43814;BME280;29669;55.706;37.656;2024-03-25T08:47:31;98930.22;;;9.97;nan
43814;BME280;29669;55.706;37.656;2024-03-25T08:49:57;98932.19;;;9.95;nan
43814;BME280;29669;55.706;37.656;2024-03-25T08:52:25;98927.53;;;9.76;nan
43814;BME280;29669;55.706;37.656;2024-03-25T09:00:14;98938.25;;;9.73;nan
43814;BME280;29669;55.706;37.656;2024-03-25T09:02:41;98955.78;;;9.71;nan
43814;BME280;29669;55.706;37.656;2024-03-25T09:05:08;98952.22;;;9.49;nan
43814;BME280;29669;55.706;37.656;2024-03-25T09:08:02;98949.91;;;8.94;nan
43814;BME280;29669;55.706;37.656;2024-03-25T09:10:29;98952.56;;;8.55;nan
43814;BME280;29669;55.706;37.656;2024-03-25T09:13:14;98949.44;;;8.21;nan
43814;BME280;29669;55.706;37.656;2024-03-25T09:15:41;98965.50;;;8.09;nan
43814;BME280;29669;55.706;37.656;2024-03-25T09:18:07;98962.63;;;8.04;nan
43814;BME280;29669;55.706;37.656;2024-03-25T09:20:34;98967.78;;;8.04;nan
43814;BME280;29669;55.706;37.656;2024-03-25T09:23:01;98964.34;;;8.19;nan
43814;BME280;29669;55.706;37.656;2024-03-25T09:25:28;98970.31;;;8.28;nan
43814;BME280;29669;55.706;37.656;2024-03-25T09:27:55;98966.13;;;8.19;nan
43814;BME280;29669;55.706;37.656;2024-03-25T09:30:21;98975.47;;;8.20;nan
43814;BME280;29669;55.706;37.656;2024-03-25T09:32:48;98978.03;;;8.36;nan
43814;BME280;29669;55.706;37.656;2024-03-25T09:35:15;98979.00;;;8.35;nan
43814;BME280;29669;55.706;37.656;2024-03-25T09:37:43;98992.44;;;8.30;nan
43814;BME280;29669;55.706;37.656;2024-03-25T09:40:10;98997.09;;;8.35;nan
43814;BME280;29669;55.706;37.656;2024-03-25T09:42:48;99000.69;;;8.18;nan
43814;BME280;29669;55.706;37.656;2024-03-25T09:45:18;98991.69;;;8.06;nan
43814;BME280;29669;55.706;37.656;2024-03-25T09:47:46;98982.78;;;8.08;nan
43814;BME280;29669;55.706;37.656;2024-03-25T09:50:14;98991.69;;;8.06;nan
43814;BME280;29669;55.706;37.656;2024-03-25T09:52:50;98987.66;;;8.03;nan
43814;BME280;29669;55.706;37.656;2024-03-25T09:55:17;98990.56;;;8.00;nan
43814;BME280;29669;55.706;37.656;2024-03-25T09:57:45;98988.66;;;7.78;nan
43814;BME280;29669;55.706;37.656;2024-03-25T10:00:12;98996.59;;;7.60;nan
43814;BME280;29669;55.706;37.656;2024-03-25T10:02:42;98991.44;;;7.52;nan
43814;BME280;29669;55.706;37.656;2024-03-25T10:05:09;98987.88;;;7.53;nan
43814;BME280;29669;55.706;37.656;2024-03-25T10:07:36;98987.53;;;7.64;nan
43814;BME280;29669;55.706;37.656;2024-03-25T10:10:06;99003.38;;;7.70;nan
43814;BME280;29669;55.706;37.656;2024-03-25T10:12:33;99006.75;;;7.86;nan
43814;BME280;29669;55.706;37.656;2024-03-25T10:14:59;98993.63;;;8.04;nan
43814;BME280;29669;55.706;37.656;2024-03-25T10:17:26;98996.19;;;8.12;nan
43814;BME280;29669;55.706;37.656;2024-03-25T10:19:56;99006.50;;;8.28;nan
43814;BME280;29669;55.706;37.656;2024-03-25T10:22:22;98991.63;;;8.38;nan
43814;BME280;29669;55.706;37.656;2024-03-25T10:24:49;98988.28;;;8.60;nan
43814;BME280;29669;55.706;37.656;2024-03-25T10:27:21;98994.97;;;8.77;nan
43814;BME280;29669;55.706;37.656;2024-03-25T10:29:48;98994.00;;;8.78;nan
43814;BME280;29669;55.706;37.656;2024-03-25T10:32:15;98994.22;;;8.69;nan
43814;BME280;29669;55.706;37.656;2024-03-25T10:34:41;98991.97;;;8.66;nan
43814;BME280;29669;55.706;37.656;2024-03-25T10:37:11;98989.81;;;8.77;nan
43814;BME280;29669;55.706;37.656;2024-03-25T10:39:48;98992.13;;;8.64;nan
43814;BME280;29669;55.706;37.656;2024-03-25T10:42:20;98982.84;;;8.47;nan
43814;BME280;29669;55.706;37.656;2024-03-25T10:44:47;98989.53;;;8.25;nan
43814;BME280;29669;55.706;37.656;2024-03-25T10:47:28;98992.16;;;8.09;nan
43814;BME280;29669;55.706;37.656;2024-03-25T10:49:58;99000.72;;;8.10;nan
43814;BME280;29669;55.706;37.656;2024-03-25T10:52:26;99001.56;;;8.02;nan
43814;BME280;29669;55.706;37.656;2024-03-25T10:54:56;98998.50;;;7.91;nan
43814;BME280;29669;55.706;37.656;2024-03-25T10:57:23;99006.56;;;7.88;nan
43814;BME280;29669;55.706;37.656;2024-03-25T10:59:50;99006.56;;;7.96;nan
43814;BME280;29669;55.706;37.656;2024-03-25T11:02:18;99017.19;;;8.01;nan
43814;BME280;29669;55.706;37.656;2024-03-25T11:04:46;99009.94;;;8.04;nan
43814;BME280;29669;55.706;37.656;2024-03-25T11:07:14;99002.50;;;8.09;nan
43814;BME280;29669;55.706;37.656;2024-03-25T11:09:44;99012.38;;;8.06;nan
43814;BME280;29669;55.706;37.656;2024-03-25T11:12:11;99008.97;;;8.05;nan
43814;BME280;29669;55.706;37.656;2024-03-25T11:14:42;99001.88;;;7.99;nan
43814;BME280;29669;55.706;37.656;2024-03-25T11:17:15;99005.91;;;8.02;nan
43814;BME280;29669;55.706;37.656;2024-03-25T11:19:45;99003.13;;;8.19;nan
43814;BME280;29669;55.706;37.656;2024-03-25T11:22:12;99016.84;;;8.20;nan
43814;BME280;29669;55.706;37.656;2024-03-25T11:54:41;99024.88;;;8.41;51.35
43814;BME280;29669;55.706;37.656;2024-03-25T13:57:51;99048.34;;;13.49;38.35
43814;BME280;29669;55.706;37.656;2024-03-25T14:01:22;99040.41;;;11.94;40.97
43814;BME280;29669;55.706;37.656;2024-03-25T14:03:50;99036.44;;;11.13;42.25
43814;BME280;29669;55.706;37.656;2024-03-25T14:06:17;99032.75;;;10.87;43.21
43814;BME280;29669;55.706;37.656;2024-03-25T14:08:43;99038.59;;;12.22;41.47
43814;BME280;29669;55.706;37.656;2024-03-25T14:11:11;99034.91;;;13.65;39.06
43814;BME280;29669;55.706;37.656;2024-03-25T14:13:38;99022.09;;;14.73;37.05
43814;BME280;29669;55.706;37.656;2024-03-25T14:16:05;99026.00;;;14.44;36.83
43814;BME280;29669;55.706;37.656;2024-03-25T14:18:32;99035.50;;;13.67;37.81
43814;BME280;29669;55.706;37.656;2024-03-25T14:20:58;99038.72;;;14.01;38.19
43814;BME280;29669;55.706;37.656;2024-03-25T14:23:25;99032.56;;;15.48;36.31
43814;BME280;29669;55.706;37.656;2024-03-25T14:25:51;99020.00;;;16.67;34.61
43814;BME280;29669;55.706;37.656;2024-03-25T14:28:18;99029.03;;;17.48;32.95
43814;BME280;29669;55.706;37.656;2024-03-25T14:30:44;99023.94;;;17.88;32.43
43814;BME280;29669;55.706;37.656;2024-03-25T14:33:11;99034.53;;;17.81;32.23
43814;BME280;29669;55.706;37.656;2024-03-25T14:35:38;99034.66;;;17.98;32.18
43814;BME280;29669;55.706;37.656;2024-03-25T14:38:05;99040.63;;;17.94;31.80
43814;BME280;29669;55.706;37.656;2024-03-25T14:40:31;99043.50;;;17.21;32.74
43814;BME280;29669;55.706;37.656;2024-03-25T14:42:58;99044.09;;;16.57;33.45
43814;BME280;29669;55.706;37.656;2024-03-25T14:45:27;99050.25;;;15.77;34.37
43814;BME280;29669;55.706;37.656;2024-03-25T14:47:55;99048.69;;;15.07;35.62
43814;BME280;29669;55.706;37.656;2024-03-25T14:50:21;99053.13;;;15.38;35.38
43814;BME280;29669;55.706;37.656;2024-03-25T14:52:48;99050.41;;;15.58;34.90
43814;BME280;29669;55.706;37.656;2024-03-25T14:55:14;99056.31;;;15.47;35.00
43814;BME280;29669;55.706;37.656;2024-03-25T14:57:41;99061.38;;;15.04;35.22
43814;BME280;29669;55.706;37.656;2024-03-25T15:00:08;99065.00;;;13.93;36.54
43814;BME280;29669;55.706;37.656;2024-03-25T15:02:35;99062.66;;;12.65;38.35
43814;BME280;29669;55.706;37.656;2024-03-25T15:05:01;99069.66;;;11.75;40.01
43814;BME280;29669;55.706;37.656;2024-03-25T15:07:29;99070.25;;;10.99;41.27
43814;BME280;29669;55.706;37.656;2024-03-25T15:09:55;99064.03;;;10.35;42.53
43814;BME280;29669;55.706;37.656;2024-03-25T15:12:22;99071.72;;;9.91;43.20
43814;BME280;29669;55.706;37.656;2024-03-25T15:14:50;99076.22;;;9.52;43.67
43814;BME280;29669;55.706;37.656;2024-03-25T15:17:16;99068.53;;;9.13;44.48
43814;BME280;29669;55.706;37.656;2024-03-25T15:19:43;99069.44;;;8.98;44.69
43814;BME280;29669;55.706;37.656;2024-03-25T15:22:10;99072.19;;;8.96;44.72
43814;BME280;29669;55.706;37.656;2024-03-25T15:24:36;99083.19;;;8.98;44.75
43814;BME280;29669;55.706;37.656;2024-03-25T15:27:03;99080.56;;;9.06;44.69
43814;BME280;29669;55.706;37.656;2024-03-25T15:29:29;99082.09;;;9.23;44.38
43814;BME280;29669;55.706;37.656;2024-03-25T15:31:56;99087.06;;;9.56;43.82
43814;BME280;29669;55.706;37.656;2024-03-25T15:34:22;99091.69;;;9.83;43.42
43814;BME280;29669;55.706;37.656;2024-03-25T15:36:49;99098.66;;;10.05;42.85
43814;BME280;29669;55.706;37.656;2024-03-25T15:39:15;99093.59;;;9.89;42.74
43814;BME280;29669;55.706;37.656;2024-03-25T15:41:42;99103.69;;;9.38;43.42
43814;BME280;29669;55.706;37.656;2024-03-25T15:44:08;99104.91;;;8.89;44.42
43814;BME280;29669;55.706;37.656;2024-03-25T15:46:35;99112.50;;;8.44;45.28
43814;BME280;29669;55.706;37.656;2024-03-25T15:49:01;99111.69;;;8.11;46.19
43814;BME280;29669;55.706;37.656;2024-03-25T15:51:30;99116.38;;;7.84;46.45
43814;BME280;29669;55.706;37.656;2024-03-25T15:54:01;99113.94;;;7.58;46.90
43814;BME280;29669;55.706;37.656;2024-03-25T15:56:27;99114.56;;;7.36;47.33
43814;BME280;29669;55.706;37.656;2024-03-25T15:58:54;99117.72;;;7.22;47.91